sensor_id;sensor_type;location;lat;lon;timestamp;temperature;humidity
61374;DHT22;47242;48.158;-1.586;2024-02-28T05:31:50;7.20;87.40
61374;DHT22;47242;48.158;-1.586;2024-02-28T05:34:16;7.20;87.40
61374;DHT22;47242;48.158;-1.586;2024-02-28T05:36:41;7.30;87.20
61374;DHT22;47242;48.158;-1.586;2024-02-28T05:39:07;7.40;87.10
61374;DHT22;47242;48.158;-1.586;2024-02-28T05:41:33;7.40;87.00
61374;DHT22;47242;48.158;-1.586;2024-02-28T05:43:59;7.40;87.40
61374;DHT22;47242;48.158;-1.586;2024-02-28T05:46:25;7.40;87.70
61374;DHT22;47242;48.158;-1.586;2024-02-28T05:48:50;7.40;87.70
61374;DHT22;47242;48.158;-1.586;2024-02-28T05:51:16;7.30;88.10
61374;DHT22;47242;48.158;-1.586;2024-02-28T05:53:42;7.40;88.10
61374;DHT22;47242;48.158;-1.586;2024-02-28T05:56:09;7.50;88.20
61374;DHT22;47242;48.158;-1.586;2024-02-28T05:58:43;7.50;88.00
61374;DHT22;47242;48.158;-1.586;2024-02-28T06:01:10;7.60;87.90
61374;DHT22;47242;48.158;-1.586;2024-02-28T06:03:39;7.60;88.00
61374;DHT22;47242;48.158;-1.586;2024-02-28T06:06:05;7.60;88.10
61374;DHT22;47242;48.158;-1.586;2024-02-28T06:08:33;7.70;88.10
61374;DHT22;47242;48.158;-1.586;2024-02-28T06:10:59;7.70;88.20
61374;DHT22;47242;48.158;-1.586;2024-02-28T06:13:24;7.70;88.00
61374;DHT22;47242;48.158;-1.586;2024-02-28T06:15:50;7.70;87.90
61374;DHT22;47242;48.158;-1.586;2024-02-28T06:18:16;7.70;88.20
61374;DHT22;47242;48.158;-1.586;2024-02-28T06:20:41;7.70;88.40
61374;DHT22;47242;48.158;-1.586;2024-02-28T06:23:07;7.70;88.30
61374;DHT22;47242;48.158;-1.586;2024-02-28T06:25:33;7.70;88.30
61374;DHT22;47242;48.158;-1.586;2024-02-28T06:27:59;7.80;88.40
61374;DHT22;47242;48.158;-1.586;2024-02-28T06:30:25;7.80;88.10
61374;DHT22;47242;48.158;-1.586;2024-02-28T06:32:51;7.80;88.60
61374;DHT22;47242;48.158;-1.586;2024-02-28T06:35:17;7.80;88.60
61374;DHT22;47242;48.158;-1.586;2024-02-28T06:37:43;7.80;88.40
61374;DHT22;47242;48.158;-1.586;2024-02-28T06:40:15;7.80;88.70
61374;DHT22;47242;48.158;-1.586;2024-02-28T06:42:41;7.80;88.80
61374;DHT22;47242;48.158;-1.586;2024-02-28T06:45:07;7.80;88.70
61374;DHT22;47242;48.158;-1.586;2024-02-28T06:47:34;7.90;88.70
61374;DHT22;47242;48.158;-1.586;2024-02-28T06:50:02;7.90;88.90
61374;DHT22;47242;48.158;-1.586;2024-02-28T06:52:28;7.90;89.00
61374;DHT22;47242;48.158;-1.586;2024-02-28T06:54:53;7.90;89.00
61374;DHT22;47242;48.158;-1.586;2024-02-28T06:57:19;7.90;89.20
61374;DHT22;47242;48.158;-1.586;2024-02-28T06:59:45;7.80;89.40
61374;DHT22;47242;48.158;-1.586;2024-02-28T07:02:10;7.90;89.50
61374;DHT22;47242;48.158;-1.586;2024-02-28T07:04:38;7.90;89.30
61374;DHT22;47242;48.158;-1.586;2024-02-28T07:07:04;7.90;89.40
61374;DHT22;47242;48.158;-1.586;2024-02-28T07:09:30;8.00;89.50
61374;DHT22;47242;48.158;-1.586;2024-02-28T07:11:58;8.00;89.40
61374;DHT22;47242;48.158;-1.586;2024-02-28T07:14:24;8.00;89.40
61374;DHT22;47242;48.158;-1.586;2024-02-28T07:16:49;8.00;89.50
61374;DHT22;47242;48.158;-1.586;2024-02-28T07:19:17;8.00;89.50
61374;DHT22;47242;48.158;-1.586;2024-02-28T07:21:43;8.10;89.40
61374;DHT22;47242;48.158;-1.586;2024-02-28T07:24:09;8.20;89.40
61374;DHT22;47242;48.158;-1.586;2024-02-28T07:26:34;8.10;89.50
61374;DHT22;47242;48.158;-1.586;2024-02-28T07:29:00;8.20;89.60
61374;DHT22;47242;48.158;-1.586;2024-02-28T07:31:26;8.20;89.60
61374;DHT22;47242;48.158;-1.586;2024-02-28T07:33:51;8.20;89.70
61374;DHT22;47242;48.158;-1.586;2024-02-28T07:36:17;8.20;89.90
61374;DHT22;47242;48.158;-1.586;2024-02-28T07:38:42;8.20;89.80
61374;DHT22;47242;48.158;-1.586;2024-02-28T07:41:08;8.20;89.80
61374;DHT22;47242;48.158;-1.586;2024-02-28T07:43:34;8.30;89.60
61374;DHT22;47242;48.158;-1.586;2024-02-28T07:46:07;8.30;89.70
61374;DHT22;47242;48.158;-1.586;2024-02-28T07:48:33;8.30;89.70
61374;DHT22;47242;48.158;-1.586;2024-02-28T07:50:59;8.40;89.70
61374;DHT22;47242;48.158;-1.586;2024-02-28T07:53:24;8.50;89.50
61374;DHT22;47242;48.158;-1.586;2024-02-28T07:55:50;8.60;89.40
61374;DHT22;47242;48.158;-1.586;2024-02-28T07:58:15;8.60;89.30
61374;DHT22;47242;48.158;-1.586;2024-02-28T08:00:42;8.60;89.40
61374;DHT22;47242;48.158;-1.586;2024-02-28T08:03:09;8.70;89.40
61374;DHT22;47242;48.158;-1.586;2024-02-28T08:05:35;8.60;89.30
61374;DHT22;47242;48.158;-1.586;2024-02-28T08:08:05;8.60;89.30
61374;DHT22;47242;48.158;-1.586;2024-02-28T08:10:31;8.70;89.30
61374;DHT22;47242;48.158;-1.586;2024-02-28T08:12:57;8.60;89.50
61374;DHT22;47242;48.158;-1.586;2024-02-28T08:15:23;8.70;89.60
61374;DHT22;47242;48.158;-1.586;2024-02-28T08:17:49;8.70;89.60
61374;DHT22;47242;48.158;-1.586;2024-02-28T08:20:15;8.70;89.60
61374;DHT22;47242;48.158;-1.586;2024-02-28T08:22:40;8.70;89.60
61374;DHT22;47242;48.158;-1.586;2024-02-28T08:25:06;8.70;89.60
61374;DHT22;47242;48.158;-1.586;2024-02-28T08:27:32;8.80;89.70
61374;DHT22;47242;48.158;-1.586;2024-02-28T08:30:00;8.80;89.50
61374;DHT22;47242;48.158;-1.586;2024-02-28T08:32:25;8.90;89.50
61374;DHT22;47242;48.158;-1.586;2024-02-28T08:34:51;8.90;89.40
61374;DHT22;47242;48.158;-1.586;2024-02-28T08:37:19;9.00;89.40
61374;DHT22;47242;48.158;-1.586;2024-02-28T08:39:45;9.00;89.40
61374;DHT22;47242;48.158;-1.586;2024-02-28T08:42:11;9.20;89.50
61374;DHT22;47242;48.158;-1.586;2024-02-28T08:44:37;9.30;89.20
61374;DHT22;47242;48.158;-1.586;2024-02-28T08:47:03;9.40;89.20
61374;DHT22;47242;48.158;-1.586;2024-02-28T08:49:29;9.50;89.00
61374;DHT22;47242;48.158;-1.586;2024-02-28T08:51:56;9.50;89.10
61374;DHT22;47242;48.158;-1.586;2024-02-28T08:54:22;9.60;89.00
61374;DHT22;47242;48.158;-1.586;2024-02-28T08:56:48;9.60;88.90
61374;DHT22;47242;48.158;-1.586;2024-02-28T08:59:14;9.70;89.00
61374;DHT22;47242;48.158;-1.586;2024-02-28T09:01:39;9.70;88.90
61374;DHT22;47242;48.158;-1.586;2024-02-28T09:04:06;9.70;88.90
61374;DHT22;47242;48.158;-1.586;2024-02-28T09:06:32;9.70;88.70
61374;DHT22;47242;48.158;-1.586;2024-02-28T09:08:58;9.60;88.80
61374;DHT22;47242;48.158;-1.586;2024-02-28T09:11:24;9.60;89.10
61374;DHT22;47242;48.158;-1.586;2024-02-28T09:13:50;9.60;89.10
61374;DHT22;47242;48.158;-1.586;2024-02-28T09:16:16;9.70;89.10
61374;DHT22;47242;48.158;-1.586;2024-02-28T09:18:42;9.70;89.10
61374;DHT22;47242;48.158;-1.586;2024-02-28T09:21:10;9.70;89.20
61374;DHT22;47242;48.158;-1.586;2024-02-28T09:23:36;9.80;89.00
61374;DHT22;47242;48.158;-1.586;2024-02-28T09:26:05;9.80;89.20
61374;DHT22;47242;48.158;-1.586;2024-02-28T09:28:31;9.80;89.20
61374;DHT22;47242;48.158;-1.586;2024-02-28T09:30:57;9.80;89.40
61374;DHT22;47242;48.158;-1.586;2024-02-28T09:33:23;9.80;89.50
61374;DHT22;47242;48.158;-1.586;2024-02-28T09:35:48;9.80;89.50
61374;DHT22;47242;48.158;-1.586;2024-02-28T09:38:14;9.70;89.60
61374;DHT22;47242;48.158;-1.586;2024-02-28T09:40:40;9.80;89.60
61374;DHT22;47242;48.158;-1.586;2024-02-28T09:43:11;9.80;89.60
61374;DHT22;47242;48.158;-1.586;2024-02-28T09:45:39;9.80;89.60
61374;DHT22;47242;48.158;-1.586;2024-02-28T09:48:06;10.00;89.60
61374;DHT22;47242;48.158;-1.586;2024-02-28T09:50:32;10.00;89.40
61374;DHT22;47242;48.158;-1.586;2024-02-28T09:52:58;10.10;89.50
61374;DHT22;47242;48.158;-1.586;2024-02-28T09:55:24;10.10;89.50
61374;DHT22;47242;48.158;-1.586;2024-02-28T09:57:50;10.10;89.40
61374;DHT22;47242;48.158;-1.586;2024-02-28T10:00:19;10.20;89.50
61374;DHT22;47242;48.158;-1.586;2024-02-28T10:02:47;10.20;89.50
61374;DHT22;47242;48.158;-1.586;2024-02-28T10:05:14;10.20;89.60
61374;DHT22;47242;48.158;-1.586;2024-02-28T10:07:40;10.30;89.60
61374;DHT22;47242;48.158;-1.586;2024-02-28T10:10:06;10.30;89.40
61374;DHT22;47242;48.158;-1.586;2024-02-28T10:12:33;10.40;89.50
61374;DHT22;47242;48.158;-1.586;2024-02-28T10:15:00;10.50;89.60
61374;DHT22;47242;48.158;-1.586;2024-02-28T10:17:26;10.50;89.40
61374;DHT22;47242;48.158;-1.586;2024-02-28T10:19:52;10.50;89.40
61374;DHT22;47242;48.158;-1.586;2024-02-28T10:22:18;10.50;89.50
61374;DHT22;47242;48.158;-1.586;2024-02-28T10:24:44;10.50;89.30
61374;DHT22;47242;48.158;-1.586;2024-02-28T10:27:09;10.50;89.60
61374;DHT22;47242;48.158;-1.586;2024-02-28T10:29:35;10.50;89.60
61374;DHT22;47242;48.158;-1.586;2024-02-28T10:32:01;10.60;89.50
61374;DHT22;47242;48.158;-1.586;2024-02-28T10:34:29;10.70;89.20
61374;DHT22;47242;48.158;-1.586;2024-02-28T10:36:56;10.80;89.20
61374;DHT22;47242;48.158;-1.586;2024-02-28T10:39:23;10.80;89.10
61374;DHT22;47242;48.158;-1.586;2024-02-28T10:41:50;10.70;89.10
61374;DHT22;47242;48.158;-1.586;2024-02-28T10:44:18;10.70;89.10
61374;DHT22;47242;48.158;-1.586;2024-02-28T10:46:44;10.70;89.30
61374;DHT22;47242;48.158;-1.586;2024-02-28T10:49:14;10.70;89.20
61374;DHT22;47242;48.158;-1.586;2024-02-28T10:51:40;10.70;89.30
61374;DHT22;47242;48.158;-1.586;2024-02-28T10:54:13;10.70;89.20
61374;DHT22;47242;48.158;-1.586;2024-02-28T10:56:42;10.80;89.10
61374;DHT22;47242;48.158;-1.586;2024-02-28T10:59:10;10.80;89.10
61374;DHT22;47242;48.158;-1.586;2024-02-28T11:01:45;10.70;89.20
61374;DHT22;47242;48.158;-1.586;2024-02-28T11:04:12;10.80;89.20
61374;DHT22;47242;48.158;-1.586;2024-02-28T11:06:48;10.80;89.10
61374;DHT22;47242;48.158;-1.586;2024-02-28T11:09:28;10.70;89.20
61374;DHT22;47242;48.158;-1.586;2024-02-28T11:11:55;10.70;89.30
61374;DHT22;47242;48.158;-1.586;2024-02-28T11:14:21;10.80;89.40
61374;DHT22;47242;48.158;-1.586;2024-02-28T11:17:00;10.80;89.30
61374;DHT22;47242;48.158;-1.586;2024-02-28T11:19:28;10.90;89.40
61374;DHT22;47242;48.158;-1.586;2024-02-28T11:21:54;11.00;89.30
61374;DHT22;47242;48.158;-1.586;2024-02-28T11:24:31;11.10;89.20
61374;DHT22;47242;48.158;-1.586;2024-02-28T11:26:58;11.20;89.20
61374;DHT22;47242;48.158;-1.586;2024-02-28T11:29:25;11.20;89.20
61374;DHT22;47242;48.158;-1.586;2024-02-28T11:31:52;11.10;89.10
61374;DHT22;47242;48.158;-1.586;2024-02-28T11:34:18;11.10;89.20
61374;DHT22;47242;48.158;-1.586;2024-02-28T11:36:47;11.10;89.20
61374;DHT22;47242;48.158;-1.586;2024-02-28T11:39:13;11.10;89.20
61374;DHT22;47242;48.158;-1.586;2024-02-28T11:41:39;11.10;89.00
61374;DHT22;47242;48.158;-1.586;2024-02-28T11:44:05;11.20;89.20
61374;DHT22;47242;48.158;-1.586;2024-02-28T11:46:31;11.20;89.10
61374;DHT22;47242;48.158;-1.586;2024-02-28T11:48:56;11.30;89.00
61374;DHT22;47242;48.158;-1.586;2024-02-28T11:51:22;11.50;88.80
61374;DHT22;47242;48.158;-1.586;2024-02-28T11:53:48;11.50;88.70
61374;DHT22;47242;48.158;-1.586;2024-02-28T11:56:14;11.50;88.50
61374;DHT22;47242;48.158;-1.586;2024-02-28T11:58:52;11.60;88.50
61374;DHT22;47242;48.158;-1.586;2024-02-28T12:01:19;11.60;88.50
61374;DHT22;47242;48.158;-1.586;2024-02-28T12:03:45;11.70;88.60
61374;DHT22;47242;48.158;-1.586;2024-02-28T12:06:11;11.90;88.30
61374;DHT22;47242;48.158;-1.586;2024-02-28T12:08:38;12.00;87.80
61374;DHT22;47242;48.158;-1.586;2024-02-28T12:11:07;12.10;87.70
61374;DHT22;47242;48.158;-1.586;2024-02-28T12:13:33;12.10;87.40
61374;DHT22;47242;48.158;-1.586;2024-02-28T12:16:01;12.00;87.40
61374;DHT22;47242;48.158;-1.586;2024-02-28T12:18:26;11.90;87.70
61374;DHT22;47242;48.158;-1.586;2024-02-28T12:20:53;11.90;87.70
61374;DHT22;47242;48.158;-1.586;2024-02-28T12:23:19;12.00;87.40
61374;DHT22;47242;48.158;-1.586;2024-02-28T12:25:45;12.00;87.50
61374;DHT22;47242;48.158;-1.586;2024-02-28T12:28:10;12.00;87.40
61374;DHT22;47242;48.158;-1.586;2024-02-28T12:30:40;12.10;87.20
61374;DHT22;47242;48.158;-1.586;2024-02-28T12:33:10;12.00;87.40
61374;DHT22;47242;48.158;-1.586;2024-02-28T12:35:37;12.00;87.50
61374;DHT22;47242;48.158;-1.586;2024-02-28T12:38:02;12.10;87.60
61374;DHT22;47242;48.158;-1.586;2024-02-28T12:40:28;12.40;87.20
61374;DHT22;47242;48.158;-1.586;2024-02-28T12:42:53;12.50;86.80
61374;DHT22;47242;48.158;-1.586;2024-02-28T12:45:19;12.50;86.50
61374;DHT22;47242;48.158;-1.586;2024-02-28T12:47:45;12.40;86.60
61374;DHT22;47242;48.158;-1.586;2024-02-28T12:50:10;12.40;86.80
61374;DHT22;47242;48.158;-1.586;2024-02-28T12:52:36;12.30;87.00
61374;DHT22;47242;48.158;-1.586;2024-02-28T12:55:02;12.30;87.10
61374;DHT22;47242;48.158;-1.586;2024-02-28T12:57:28;12.30;87.10
61374;DHT22;47242;48.158;-1.586;2024-02-28T12:59:54;12.40;87.20
61374;DHT22;47242;48.158;-1.586;2024-02-28T13:02:21;12.40;87.30
61374;DHT22;47242;48.158;-1.586;2024-02-28T13:04:47;12.50;87.40
61374;DHT22;47242;48.158;-1.586;2024-02-28T13:07:14;12.50;87.40
61374;DHT22;47242;48.158;-1.586;2024-02-28T13:09:40;12.40;87.40
61374;DHT22;47242;48.158;-1.586;2024-02-28T13:12:07;12.30;87.70
61374;DHT22;47242;48.158;-1.586;2024-02-28T13:14:34;12.30;87.90
61374;DHT22;47242;48.158;-1.586;2024-02-28T13:16:59;12.30;87.90
61374;DHT22;47242;48.158;-1.586;2024-02-28T13:19:25;12.30;88.10
61374;DHT22;47242;48.158;-1.586;2024-02-28T13:21:51;12.30;88.30
61374;DHT22;47242;48.158;-1.586;2024-02-28T13:24:16;12.40;88.30
61374;DHT22;47242;48.158;-1.586;2024-02-28T13:26:42;12.40;88.10
61374;DHT22;47242;48.158;-1.586;2024-02-28T13:29:08;12.40;88.10
61374;DHT22;47242;48.158;-1.586;2024-02-28T13:31:34;12.40;88.30
61374;DHT22;47242;48.158;-1.586;2024-02-28T13:34:00;12.40;88.20
61374;DHT22;47242;48.158;-1.586;2024-02-28T13:36:26;12.40;88.50
61374;DHT22;47242;48.158;-1.586;2024-02-28T13:38:51;12.30;88.50
61374;DHT22;47242;48.158;-1.586;2024-02-28T13:41:17;12.40;88.60
61374;DHT22;47242;48.158;-1.586;2024-02-28T13:43:43;12.30;88.50
61374;DHT22;47242;48.158;-1.586;2024-02-28T13:46:08;12.30;88.60
61374;DHT22;47242;48.158;-1.586;2024-02-28T13:48:35;12.30;88.80
61374;DHT22;47242;48.158;-1.586;2024-02-28T13:51:01;12.30;89.10
61374;DHT22;47242;48.158;-1.586;2024-02-28T13:53:30;12.20;89.20
61374;DHT22;47242;48.158;-1.586;2024-02-28T13:55:55;12.30;89.40
61374;DHT22;47242;48.158;-1.586;2024-02-28T13:58:21;12.20;89.40
61374;DHT22;47242;48.158;-1.586;2024-02-28T14:00:47;12.30;89.50
61374;DHT22;47242;48.158;-1.586;2024-02-28T14:03:13;12.30;89.50
61374;DHT22;47242;48.158;-1.586;2024-02-28T14:05:39;12.30;89.50
61374;DHT22;47242;48.158;-1.586;2024-02-28T14:08:06;12.20;89.60
61374;DHT22;47242;48.158;-1.586;2024-02-28T14:10:37;12.20;89.90
61374;DHT22;47242;48.158;-1.586;2024-02-28T14:13:02;12.20;89.90
61374;DHT22;47242;48.158;-1.586;2024-02-28T14:15:28;12.30;89.80
61374;DHT22;47242;48.158;-1.586;2024-02-28T14:17:54;12.30;89.80
61374;DHT22;47242;48.158;-1.586;2024-02-28T14:20:20;12.30;90.00
61374;DHT22;47242;48.158;-1.586;2024-02-28T14:22:45;12.30;90.00
61374;DHT22;47242;48.158;-1.586;2024-02-28T14:25:12;12.40;90.10
61374;DHT22;47242;48.158;-1.586;2024-02-28T14:27:39;12.40;90.00
61374;DHT22;47242;48.158;-1.586;2024-02-28T14:30:06;12.40;89.90
61374;DHT22;47242;48.158;-1.586;2024-02-28T14:32:37;12.40;90.00
61374;DHT22;47242;48.158;-1.586;2024-02-28T14:35:07;12.50;89.90
61374;DHT22;47242;48.158;-1.586;2024-02-28T14:37:37;12.50;89.90
61374;DHT22;47242;48.158;-1.586;2024-02-28T14:40:03;12.50;89.90
61374;DHT22;47242;48.158;-1.586;2024-02-28T14:42:36;12.50;90.00
61374;DHT22;47242;48.158;-1.586;2024-02-28T14:45:01;12.40;90.10
61374;DHT22;47242;48.158;-1.586;2024-02-28T14:47:27;12.40;90.20
61374;DHT22;47242;48.158;-1.586;2024-02-28T14:49:53;12.40;90.30
61374;DHT22;47242;48.158;-1.586;2024-02-28T14:52:18;12.30;90.30
61374;DHT22;47242;48.158;-1.586;2024-02-28T14:54:44;12.30;90.20
61374;DHT22;47242;48.158;-1.586;2024-02-28T14:57:11;12.30;90.20
61374;DHT22;47242;48.158;-1.586;2024-02-28T14:59:37;12.30;90.30
61374;DHT22;47242;48.158;-1.586;2024-02-28T15:02:02;12.30;90.60
61374;DHT22;47242;48.158;-1.586;2024-02-28T15:04:29;12.30;90.60
61374;DHT22;47242;48.158;-1.586;2024-02-28T15:06:54;12.20;90.60
61374;DHT22;47242;48.158;-1.586;2024-02-28T15:09:20;12.20;90.80
61374;DHT22;47242;48.158;-1.586;2024-02-28T15:11:48;12.20;90.90
61374;DHT22;47242;48.158;-1.586;2024-02-28T15:14:13;12.20;90.90
61374;DHT22;47242;48.158;-1.586;2024-02-28T15:16:40;12.20;90.80
61374;DHT22;47242;48.158;-1.586;2024-02-28T15:19:05;12.20;91.00
61374;DHT22;47242;48.158;-1.586;2024-02-28T15:21:31;12.20;91.00
61374;DHT22;47242;48.158;-1.586;2024-02-28T15:23:56;12.20;90.90
61374;DHT22;47242;48.158;-1.586;2024-02-28T15:26:22;12.10;91.00
61374;DHT22;47242;48.158;-1.586;2024-02-28T15:28:48;12.20;91.10
61374;DHT22;47242;48.158;-1.586;2024-02-28T15:31:14;12.20;91.10
61374;DHT22;47242;48.158;-1.586;2024-02-28T15:33:39;12.20;91.10
61374;DHT22;47242;48.158;-1.586;2024-02-28T15:36:05;12.20;91.20
61374;DHT22;47242;48.158;-1.586;2024-02-28T15:38:31;12.20;91.20
61374;DHT22;47242;48.158;-1.586;2024-02-28T15:40:56;12.20;91.30
61374;DHT22;47242;48.158;-1.586;2024-02-28T15:43:22;12.10;91.30
61374;DHT22;47242;48.158;-1.586;2024-02-28T15:45:48;12.00;91.40
61374;DHT22;47242;48.158;-1.586;2024-02-28T15:48:15;12.00;91.50
61374;DHT22;47242;48.158;-1.586;2024-02-28T15:50:41;12.00;91.50
61374;DHT22;47242;48.158;-1.586;2024-02-28T15:53:06;12.00;91.50
61374;DHT22;47242;48.158;-1.586;2024-02-28T15:55:32;12.00;91.60
61374;DHT22;47242;48.158;-1.586;2024-02-28T15:57:58;12.00;91.60
61374;DHT22;47242;48.158;-1.586;2024-02-28T16:00:24;12.00;91.70
61374;DHT22;47242;48.158;-1.586;2024-02-28T16:02:50;12.00;91.80
61374;DHT22;47242;48.158;-1.586;2024-02-28T16:05:15;12.00;91.70
61374;DHT22;47242;48.158;-1.586;2024-02-28T16:07:41;12.00;91.70
61374;DHT22;47242;48.158;-1.586;2024-02-28T16:10:10;11.90;91.90
61374;DHT22;47242;48.158;-1.586;2024-02-28T16:12:36;11.90;92.10
61374;DHT22;47242;48.158;-1.586;2024-02-28T16:15:02;12.00;92.10
61374;DHT22;47242;48.158;-1.586;2024-02-28T16:17:28;12.00;92.10
61374;DHT22;47242;48.158;-1.586;2024-02-28T16:19:56;12.00;92.10
61374;DHT22;47242;48.158;-1.586;2024-02-28T16:22:22;12.00;92.10
61374;DHT22;47242;48.158;-1.586;2024-02-28T16:24:48;12.00;92.20
61374;DHT22;47242;48.158;-1.586;2024-02-28T16:27:14;12.10;92.20
61374;DHT22;47242;48.158;-1.586;2024-02-28T16:29:39;12.00;92.10
61374;DHT22;47242;48.158;-1.586;2024-02-28T16:32:05;12.00;92.20
61374;DHT22;47242;48.158;-1.586;2024-02-28T16:34:31;12.00;92.30
61374;DHT22;47242;48.158;-1.586;2024-02-28T16:36:57;12.00;92.20
61374;DHT22;47242;48.158;-1.586;2024-02-28T16:39:23;12.00;92.20
61374;DHT22;47242;48.158;-1.586;2024-02-28T16:41:49;12.00;92.20
61374;DHT22;47242;48.158;-1.586;2024-02-28T16:44:15;12.00;92.30
61374;DHT22;47242;48.158;-1.586;2024-02-28T16:46:40;12.00;92.20
61374;DHT22;47242;48.158;-1.586;2024-02-28T16:49:06;12.00;92.30
61374;DHT22;47242;48.158;-1.586;2024-02-28T16:51:31;12.00;92.30
61374;DHT22;47242;48.158;-1.586;2024-02-28T16:53:57;12.00;92.30
61374;DHT22;47242;48.158;-1.586;2024-02-28T16:56:23;12.00;92.30
61374;DHT22;47242;48.158;-1.586;2024-02-28T16:58:48;12.00;92.30
61374;DHT22;47242;48.158;-1.586;2024-02-28T17:01:14;12.00;92.30
61374;DHT22;47242;48.158;-1.586;2024-02-28T17:03:40;12.00;92.30
61374;DHT22;47242;48.158;-1.586;2024-02-28T17:06:05;12.00;92.20
61374;DHT22;47242;48.158;-1.586;2024-02-28T17:08:31;12.00;92.30
61374;DHT22;47242;48.158;-1.586;2024-02-28T17:10:59;12.00;92.40
61374;DHT22;47242;48.158;-1.586;2024-02-28T17:13:24;12.00;92.40
61374;DHT22;47242;48.158;-1.586;2024-02-28T17:15:50;12.00;92.30
61374;DHT22;47242;48.158;-1.586;2024-02-28T17:18:28;12.00;92.40
61374;DHT22;47242;48.158;-1.586;2024-02-28T17:20:54;12.00;92.30
61374;DHT22;47242;48.158;-1.586;2024-02-28T17:23:19;12.00;92.30
61374;DHT22;47242;48.158;-1.586;2024-02-28T17:25:45;12.00;92.30
61374;DHT22;47242;48.158;-1.586;2024-02-28T17:28:11;12.00;92.30
61374;DHT22;47242;48.158;-1.586;2024-02-28T17:30:36;12.00;92.30
61374;DHT22;47242;48.158;-1.586;2024-02-28T17:33:02;11.90;92.20
61374;DHT22;47242;48.158;-1.586;2024-02-28T17:35:27;11.90;92.20
61374;DHT22;47242;48.158;-1.586;2024-02-28T17:37:53;12.00;92.30
61374;DHT22;47242;48.158;-1.586;2024-02-28T17:40:19;11.90;92.30
61374;DHT22;47242;48.158;-1.586;2024-02-28T17:42:45;11.90;92.30
61374;DHT22;47242;48.158;-1.586;2024-02-28T17:45:12;11.90;92.20
61374;DHT22;47242;48.158;-1.586;2024-02-28T17:47:38;11.90;92.10
61374;DHT22;47242;48.158;-1.586;2024-02-28T17:50:04;11.90;92.10
61374;DHT22;47242;48.158;-1.586;2024-02-28T17:52:31;11.90;92.10
61374;DHT22;47242;48.158;-1.586;2024-02-28T17:54:56;11.90;92.10
61374;DHT22;47242;48.158;-1.586;2024-02-28T17:57:22;11.90;92.00
61374;DHT22;47242;48.158;-1.586;2024-02-28T17:59:47;11.90;92.00
61374;DHT22;47242;48.158;-1.586;2024-02-28T18:02:13;11.90;92.00
61374;DHT22;47242;48.158;-1.586;2024-02-28T18:04:39;11.80;91.90
61374;DHT22;47242;48.158;-1.586;2024-02-28T18:07:04;11.80;91.90
61374;DHT22;47242;48.158;-1.586;2024-02-28T18:09:30;11.80;92.00
61374;DHT22;47242;48.158;-1.586;2024-02-28T18:11:57;11.80;92.00
61374;DHT22;47242;48.158;-1.586;2024-02-28T18:14:23;11.80;91.90
61374;DHT22;47242;48.158;-1.586;2024-02-28T18:16:49;11.80;92.10
61374;DHT22;47242;48.158;-1.586;2024-02-28T18:19:17;11.80;92.00
61374;DHT22;47242;48.158;-1.586;2024-02-28T18:21:43;11.80;92.00
61374;DHT22;47242;48.158;-1.586;2024-02-28T18:24:09;11.80;92.00
61374;DHT22;47242;48.158;-1.586;2024-02-28T18:26:34;11.80;91.90
61374;DHT22;47242;48.158;-1.586;2024-02-28T18:29:00;11.80;91.90
61374;DHT22;47242;48.158;-1.586;2024-02-28T18:31:26;11.80;91.80
61374;DHT22;47242;48.158;-1.586;2024-02-28T18:33:52;11.80;91.80
61374;DHT22;47242;48.158;-1.586;2024-02-28T18:36:18;11.80;91.80
61374;DHT22;47242;48.158;-1.586;2024-02-28T18:38:45;11.80;91.80
61374;DHT22;47242;48.158;-1.586;2024-02-28T18:41:10;11.80;91.80
61374;DHT22;47242;48.158;-1.586;2024-02-28T18:43:39;11.80;91.70
61374;DHT22;47242;48.158;-1.586;2024-02-28T18:46:05;11.80;91.70
61374;DHT22;47242;48.158;-1.586;2024-02-28T18:48:31;11.80;91.60
61374;DHT22;47242;48.158;-1.586;2024-02-28T18:50:58;11.80;91.70
61374;DHT22;47242;48.158;-1.586;2024-02-28T18:53:25;11.70;91.60
61374;DHT22;47242;48.158;-1.586;2024-02-28T18:55:51;11.80;91.50
61374;DHT22;47242;48.158;-1.586;2024-02-28T18:58:16;11.70;91.60
61374;DHT22;47242;48.158;-1.586;2024-02-28T19:00:42;11.70;91.60
61374;DHT22;47242;48.158;-1.586;2024-02-28T19:03:12;11.70;91.70
61374;DHT22;47242;48.158;-1.586;2024-02-28T19:05:39;11.70;91.70
61374;DHT22;47242;48.158;-1.586;2024-02-28T19:08:05;11.70;91.60
61374;DHT22;47242;48.158;-1.586;2024-02-28T19:10:32;11.70;91.50
61374;DHT22;47242;48.158;-1.586;2024-02-28T19:12:58;11.80;91.60
61374;DHT22;47242;48.158;-1.586;2024-02-28T19:15:23;11.70;91.50
61374;DHT22;47242;48.158;-1.586;2024-02-28T19:17:49;11.80;91.50
61374;DHT22;47242;48.158;-1.586;2024-02-28T19:20:15;11.70;91.30
61374;DHT22;47242;48.158;-1.586;2024-02-28T19:22:40;11.80;91.40
61374;DHT22;47242;48.158;-1.586;2024-02-28T19:25:06;11.70;91.30
61374;DHT22;47242;48.158;-1.586;2024-02-28T19:27:32;11.80;91.30
61374;DHT22;47242;48.158;-1.586;2024-02-28T19:29:57;11.70;91.30
61374;DHT22;47242;48.158;-1.586;2024-02-28T19:32:24;11.70;91.10
61374;DHT22;47242;48.158;-1.586;2024-02-28T19:34:49;11.70;91.20
61374;DHT22;47242;48.158;-1.586;2024-02-28T19:37:15;11.70;91.20
61374;DHT22;47242;48.158;-1.586;2024-02-28T19:39:41;11.70;91.20
61374;DHT22;47242;48.158;-1.586;2024-02-28T19:42:06;11.70;91.10
61374;DHT22;47242;48.158;-1.586;2024-02-28T19:44:32;11.70;91.20
61374;DHT22;47242;48.158;-1.586;2024-02-28T19:46:58;11.70;91.00
61374;DHT22;47242;48.158;-1.586;2024-02-28T19:49:23;11.70;91.00
61374;DHT22;47242;48.158;-1.586;2024-02-28T19:51:49;11.70;91.00
61374;DHT22;47242;48.158;-1.586;2024-02-28T19:54:14;11.70;91.00
61374;DHT22;47242;48.158;-1.586;2024-02-28T19:56:40;11.70;91.00
61374;DHT22;47242;48.158;-1.586;2024-02-28T19:59:06;11.70;90.90
61374;DHT22;47242;48.158;-1.586;2024-02-28T20:01:31;11.70;90.80
61374;DHT22;47242;48.158;-1.586;2024-02-28T20:03:57;11.70;90.90
61374;DHT22;47242;48.158;-1.586;2024-02-28T20:06:23;11.70;91.00
61374;DHT22;47242;48.158;-1.586;2024-02-28T20:08:49;11.70;90.90
61374;DHT22;47242;48.158;-1.586;2024-02-28T20:11:18;11.70;90.90
61374;DHT22;47242;48.158;-1.586;2024-02-28T20:13:45;11.70;91.00
61374;DHT22;47242;48.158;-1.586;2024-02-28T20:16:19;11.60;90.90
61374;DHT22;47242;48.158;-1.586;2024-02-28T20:18:45;11.60;91.10
61374;DHT22;47242;48.158;-1.586;2024-02-28T20:21:11;11.60;90.90
61374;DHT22;47242;48.158;-1.586;2024-02-28T20:23:39;11.70;91.00
61374;DHT22;47242;48.158;-1.586;2024-02-28T20:26:05;11.60;91.10
61374;DHT22;47242;48.158;-1.586;2024-02-28T20:28:30;11.50;91.20
61374;DHT22;47242;48.158;-1.586;2024-02-28T20:30:56;11.60;91.40
61374;DHT22;47242;48.158;-1.586;2024-02-28T20:33:22;11.60;91.20
61374;DHT22;47242;48.158;-1.586;2024-02-28T20:35:50;11.60;91.20
61374;DHT22;47242;48.158;-1.586;2024-02-28T20:38:16;11.60;91.20
61374;DHT22;47242;48.158;-1.586;2024-02-28T20:40:42;11.60;91.30
61374;DHT22;47242;48.158;-1.586;2024-02-28T20:43:08;11.60;91.30
61374;DHT22;47242;48.158;-1.586;2024-02-28T20:45:35;11.60;91.40